MMTC 090351Z 00000KT 10SM SCT200 18/02 A3006 RMK 8/002= 090351

MMTC 090245Z 26005KT 10SM SCT200 20/02 A3005 RMK SLP123 52014 904 8/002= 090246

MMTC 090147Z 00000KT 10SM SCT200 21/01 A3003 RMK 8/002= 090147

MMTC 090042Z 01004KT 10SM SCT200 23/M01 A3001 RMK 8/002= 090043

MMTC 082348Z 04003KT 10SM BKN200 26/00 A3000 RMK SLP097 54000 907 8/002= 082349

MMTC 082243Z 12005KT 10SM BKN200 27/M02 A2999 RMK 8/002= 082244

MMTC 082147Z 10004KT 10SM BKN200 27/M01 A3000 RMK 8/002= 082148

MMTC 082042Z 09004KT 10SM BKN200 26/00 A3001 RMK SLP101 57044 957 8/002 ISOL AS= 082047

MMTC 081940Z 06007KT 10SM BKN200 25/02 A3005 RMK 8/002 HZY ISOL AS= 081940

MMTC 081840Z 00000KT 10SM BKN200 24/02 A3009 RMK 8/002 HZY= 081840

MMTC 081740Z 09004KT 10SM BKN200 22/01 A3013 RMK SLP162 57004 907 8/002 HZY= 081741

MMTC 081642Z 00000KT 10SM BKN200 20/02 A3016 RMK 8/002 HZY= 081643

MMTC 081540Z 00000KT 10SM BKN200 17/02 A3016 RMK 8/002 HZY= 081541

MMTC 081440Z 00000KT 10SM BKN200 15/03 A3015 RMK SLP165 52014 907 8/002 HZY= 081441

MMTC 081340Z 00000KT 8SM BKN200 10/02 A3013 RMK 8/002 HZY ISOL AS= 081340

MMTC 081240Z 00000KT 8SM SCT200 10/02 A3011 RMK 8/002 HZY= 081240

MMTC 081140Z 00000KT 8SM SCT200 12/05 A3010 RMK SLP136 5//// 903 8/002 HZY= 081141

MMTC 081040Z 00000KT 8SM SCT200 12/04 A3009 RMK 8/002 HZY RTS= 081040

MMTC 080345Z 27004KT 8SM SKC 19/04 A3005= 080345

MMTC 080245Z 24002KT 10SM SKC 19/04 A3004 RMK SLP122 50017 964= 080246

MMTC 080142Z 35007KT 10SM SKC 21/03 A3002= 080143

MMTC 080050Z 13005KT 10SM SCT250 23/02 A2999 RMK 8/002= 080051

MMTC 072346Z 07006KT 15SM BKN250 26/02 A2998 RMK SLP084 57014 977 8/002= 072347

MMTC 072245Z 07004KT 10SM BKN250 26/02 A2997 RMK 8/002= 072246

MMTC 072140Z 08004KT 10SM BKN200 26/02 A2997 RMK 8/002 ISOL AS= 072140

MMTC 072040Z 00000KT 10SM BKN200 26/02 A2999 RMK SLP094 57030 970 8/002 ISOL AS= 072040

MMTC 071944Z 10005KT 10SM BKN200 25/03 A3002 RMK 8/002= 071945

MMTC 071845Z 14004KT 10SM BKN200 23/03 A3006 RMK 8/002= 071846

MMTC 071748Z 14006KT 10SM BKN200 20/03 A3011 RMK SLP141 57004 974 8/002 AS= 071749

MMTC 071646Z 14007KT 10SM BKN200 18/03 A3013 RMK 8/002 AS= 071646

MMTC 071545Z 13003KT 10SM BKN200 16/03 A3014 RMK 8/002= 071546

MMTC 071448Z 14005KT 10SM FEW100 BKN200 14/03 A3013 RMK SLP154 52010 963 8/072= 071450

MMTC 071347Z 10004KT 10SM FEW100 BKN200 12/02 A3012 RMK 8/072= 071348

MMTC 071243Z 00000KT 8SM FEW100 13/02 A3011 RMK 8/070= 071244

MMTC 071148Z 00000KT 8SM FEW100 14/02 A3010 RMK SLP127 5//// 953 8/070= 071149

MMTC 071045Z 28004KT 8SM FEW100 14/02 A3011 RMK 8/070 RTS= 071046

MMTC 070344Z 31005KT 10SM SCT110 19/03 A3010 RMK 8/070= 070345

MMTC 070240Z 25002KT 10SM SCT110 20/04 A3008 RMK SLP119 50004 917 8/070= 070241

MMTC 070140Z 33002KT 10SM SCT110 22/03 A3008 RMK 8/070= 070140

MMTC 070040Z 34003KT 10SM SCT110 23/02 A3007 RMK 8/070= 070040

MMTC 062344Z 04003KT 15SM SCT110 BKN250 26/01 A3007 RMK SLP109 56007 933 8/072= 062345

MMTC 062251Z 06006KT 10SM FEW100 SCT250 26/01 A3006 RMK 8/042 SC= 062252

MMTC 062140Z 03010KT 10SM FEW090 SCT250 27/02 A3007 RMK 8/042 ISOL SC= 062140

MMTC 062051Z 06008KT 10SM SCT250 26/00 A3009 RMK SLP117 55034 990 8/002= 062052

MMTC 061943Z 07006KT 10SM SCT100 SCT200 26/00 A3013 RMK 8/072= 061944

MMTC 061846Z 00000KT 10SM SCT100 SCT200 25/01 A3016 RMK 8/072= 061847

MMTC 061747Z 35003KT 10SM SCT080 SCT200 24/01 A3020 RMK SLP154 52007 940 8/072= 061748

MMTC 061644Z 13005KT 10SM SCT080 BKN200 23/03 A3021 RMK 8/072 SC= 061645

MMTC 061548Z 10004KT 10SM FEW030 BKN080 21/03 A3020 RMK 8/570 CI= 061550

MMTC 061451Z 00000KT 10SM FEW030 BKN080 20/04 A3018 RMK SLP147 52020 940 8/570= 061452